Highest pressure

Not for real navigation. The accuracy of this data is not assured See disclaimer for more information



ICAO NAME COUNTRY WIND Kt GUST Kt VIS m TEMP/DEW C BARO METAR
SLLP La Paz / Alto Bolivia 4 0 9999 2/1 30.62 SLLP 230900Z 07004KT 3000E VCFG FEW003 SCT013 BKN200 02/01 Q1037
CWEU Eureka, N. W. T. Canada 2 0 9999 -27/-31 30.53 CWEU 230900Z 11002KT 15SM IC CAVOK M27/M31 A3053 RMK SLP342
CYCB Cambridge Bay, N. W. T. Canada 6 0 9999 -28/-31 30.52 CYCB 230900Z 35006KT 15SM IC CAVOK M28/M31 A3052 RMK SLP342
CYCO Coppermine, N. W. T. Canada 2 0 24000 -26/-29 30.49 CYCO 230900Z VRB02KT 15SM FEW100 FEW200 M26/M29 A3049 RMK AC1CS1 AC TR CS TR FROIN SLP329
SPZO Cuzco Peru 0 0 9999 9/6 30.47 SPZO 230900Z /////KT 9999 SCT050 SCT100 09/06 Q1032 RMK PP000

Show more